Time;durP1;ratioP1;P1;durP2;ratioP2;P2;SDS_P1;SDS_P2;PMS_P1;PMS_P2;Temp;Humidity;BMP_temperature;BMP_pressure;BME280_temperature;BME280_humidity;BME280_pressure;Samples;Min_cycle;Max_cycle;Signal;HPM_P1;HPM_P2
2023/08/20 00:00:29;;;;;;;10.77;7.40;;;20.90;99.90;;;;;;5044990;28;20442;-57
2023/08/20 00:03:03;;;;;;;7.57;6.70;;;20.90;99.90;;;;;;5043270;28;20437;-56
2023/08/20 00:05:29;;;;;;;14.33;7.30;;;20.80;99.90;;;;;;5039938;28;20210;-58
2023/08/20 00:07:55;;;;;;;10.67;6.70;;;20.70;99.90;;;;;;5046859;28;20457;-56
2023/08/20 00:10:20;;;;;;;10.97;7.37;;;20.70;99.90;;;;;;5045992;28;20437;-58
2023/08/20 00:12:46;;;;;;;11.40;6.63;;;20.70;99.90;;;;;;5043387;28;20194;-58
2023/08/20 00:15:12;;;;;;;10.80;7.70;;;20.60;99.90;;;;;;5042197;28;20225;-58
2023/08/20 00:17:39;;;;;;;16.33;8.40;;;20.60;99.90;;;;;;5046317;28;20695;-57
2023/08/20 00:20:12;;;;;;;14.60;8.03;;;20.60;99.90;;;;;;5043778;22;20231;-56
2023/08/20 00:22:39;;;;;;;9.17;8.10;;;20.60;99.90;;;;;;5008961;28;20443;-57
2023/08/20 00:25:06;;;;;;;12.57;7.17;;;20.50;99.90;;;;;;5006717;28;20442;-57
2023/08/20 00:27:32;;;;;;;11.40;7.70;;;20.50;99.90;;;;;;5004636;28;20542;-57
2023/08/20 00:29:58;;;;;;;13.43;8.53;;;20.50;99.90;;;;;;5004863;28;20904;-57
2023/08/20 00:32:23;;;;;;;12.70;8.00;;;20.40;99.90;;;;;;5008846;28;20538;-58
2023/08/20 00:34:49;;;;;;;15.27;8.17;;;20.40;99.90;;;;;;5005922;28;20204;-58
2023/08/20 00:37:15;;;;;;;12.63;8.17;;;20.40;99.90;;;;;;5008469;28;20197;-57
2023/08/20 00:39:40;;;;;;;19.53;8.50;;;20.40;99.90;;;;;;5007284;28;20188;-57
2023/08/20 00:42:07;;;;;;;10.13;8.00;;;20.40;99.90;;;;;;5005651;28;20169;-58
2023/08/20 00:44:33;;;;;;;14.40;7.93;;;20.40;99.90;;;;;;5008333;28;20179;-58
2023/08/20 00:47:00;;;;;;;12.20;7.60;;;20.40;99.90;;;;;;5006207;28;20853;-58
2023/08/20 00:49:25;;;;;;;10.73;7.57;;;20.40;99.90;;;;;;5005676;28;20459;-57
2023/08/20 00:51:52;;;;;;;13.93;8.90;;;20.40;99.90;;;;;;4992313;28;20442;-58
2023/08/20 00:54:17;;;;;;;9.23;7.90;;;20.30;99.90;;;;;;5003923;28;20283;-57
2023/08/20 00:56:44;;;;;;;13.33;8.00;;;20.30;99.90;;;;;;5006031;28;20523;-58
2023/08/20 00:59:10;;;;;;;15.10;8.73;;;20.30;99.90;;;;;;5004514;28;20246;-57
2023/08/20 01:01:36;;;;;;;16.07;8.80;;;20.20;99.90;;;;;;5008533;28;20427;-57
2023/08/20 01:04:02;;;;;;;12.03;7.60;;;20.20;99.90;;;;;;5006529;28;20208;-57
2023/08/20 01:06:49;;;;;;;10.43;8.43;;;20.20;99.90;;;;;;5005779;28;20184;-57
2023/08/20 01:09:20;;;;;;;12.37;7.30;;;20.10;99.90;;;;;;5005127;28;20443;-57
2023/08/20 01:11:54;;;;;;;11.07;8.50;;;20.10;99.90;;;;;;5009083;28;20423;-58
2023/08/20 01:14:20;;;;;;;11.17;7.67;;;20.00;99.90;;;;;;5003520;28;20959;-57
2023/08/20 01:16:46;;;;;;;11.67;8.30;;;20.00;99.90;;;;;;5006282;28;20445;-58
2023/08/20 01:19:20;;;;;;;12.30;8.30;;;20.00;99.90;;;;;;5005920;28;20295;-57
2023/08/20 01:22:21;;;;;;;9.27;8.17;;;19.90;99.90;;;;;;5002709;28;20669;-57
2023/08/20 01:25:11;;;;;;;15.00;7.90;;;19.90;99.90;;;;;;5005766;28;20769;-57
2023/08/20 01:28:08;;;;;;;13.30;8.10;;;19.90;99.90;;;;;;5007188;28;21139;-57
2023/08/20 01:30:34;;;;;;;11.23;8.30;;;19.80;99.90;;;;;;5007143;28;20454;-57
2023/08/20 01:33:01;;;;;;;12.80;8.23;;;19.80;99.90;;;;;;5005079;28;20510;-58
2023/08/20 01:35:27;;;;;;;12.10;7.90;;;19.70;99.90;;;;;;5008790;28;20467;-57
2023/08/20 01:37:52;;;;;;;13.70;8.27;;;19.70;99.90;;;;;;5008462;28;20415;-58
2023/08/20 01:40:18;;;;;;;11.77;9.00;;;19.70;99.90;;;;;;4997188;28;20284;-57
2023/08/20 01:42:44;;;;;;;13.27;9.10;;;19.60;99.90;;;;;;5005306;28;20760;-58
2023/08/20 01:45:10;;;;;;;13.87;8.80;;;19.60;99.90;;;;;;5006912;28;20184;-58
2023/08/20 01:47:36;;;;;;;12.93;8.23;;;19.60;99.90;;;;;;5007229;28;20785;-57
2023/08/20 01:50:02;;;;;;;13.07;8.43;;;19.50;99.90;;;;;;4998263;28;20486;-57
2023/08/20 01:52:29;;;;;;;14.40;8.63;;;19.50;99.90;;;;;;4999280;28;20709;-58
2023/08/20 01:54:54;;;;;;;12.20;8.47;;;19.40;99.90;;;;;;5006765;28;20487;-57
2023/08/20 01:57:20;;;;;;;12.40;8.53;;;19.40;99.90;;;;;;5005306;28;20888;-57
2023/08/20 01:59:47;;;;;;;14.50;9.50;;;19.40;99.90;;;;;;5006021;28;20196;-57
2023/08/20 02:02:13;;;;;;;14.00;9.30;;;19.40;99.90;;;;;;5008963;28;20188;-58
2023/08/20 02:04:38;;;;;;;12.30;8.30;;;19.40;99.90;;;;;;5006546;28;20552;-58
2023/08/20 02:07:04;;;;;;;15.07;10.03;;;19.30;99.90;;;;;;5004833;28;20176;-57
2023/08/20 02:09:30;;;;;;;13.80;9.13;;;19.30;99.90;;;;;;5005533;28;20679;-57
2023/08/20 02:11:55;;;;;;;10.60;8.57;;;19.30;99.90;;;;;;5006334;28;20267;-58
2023/08/20 02:14:21;;;;;;;17.20;9.40;;;19.30;99.90;;;;;;5002064;28;20418;-57
2023/08/20 02:16:47;;;;;;;13.23;8.77;;;19.30;99.90;;;;;;5004011;28;20176;-57
2023/08/20 02:19:13;;;;;;;11.87;9.23;;;19.30;99.90;;;;;;5007059;28;20231;-58
2023/08/20 02:21:40;;;;;;;11.43;8.70;;;19.20;99.90;;;;;;5006710;28;20515;-57
2023/08/20 02:24:06;;;;;;;16.53;8.90;;;19.20;99.90;;;;;;5003951;28;21139;-57
2023/08/20 02:26:32;;;;;;;12.07;8.80;;;19.20;99.90;;;;;;5004581;28;20443;-57
2023/08/20 02:28:57;;;;;;;14.23;8.17;;;19.20;99.90;;;;;;5006435;28;20508;-57
2023/08/20 02:31:23;;;;;;;13.90;8.90;;;19.20;99.90;;;;;;5012480;28;20191;-57
2023/08/20 02:33:49;;;;;;;14.40;8.87;;;19.10;99.90;;;;;;5008968;28;20188;-58
2023/08/20 02:36:14;;;;;;;13.53;9.30;;;19.10;99.90;;;;;;5001835;28;20218;-57
2023/08/20 02:38:40;;;;;;;10.47;8.37;;;19.10;99.90;;;;;;5009988;28;20183;-58
2023/08/20 02:41:05;;;;;;;13.37;9.43;;;19.10;99.90;;;;;;5009518;28;20204;-57
2023/08/20 02:43:31;;;;;;;14.17;9.13;;;19.10;99.90;;;;;;5010981;28;20234;-58
2023/08/20 02:45:57;;;;;;;9.50;8.57;;;19.00;99.90;;;;;;4993018;28;20264;-58
2023/08/20 02:48:26;;;;;;;13.10;8.80;;;19.00;99.90;;;;;;5010455;28;20656;-58
2023/08/20 02:50:53;;;;;;;12.27;8.90;;;19.00;99.90;;;;;;5000704;28;20200;-58
2023/08/20 02:53:19;;;;;;;15.03;9.40;;;19.00;99.90;;;;;;4992196;28;20437;-58
2023/08/20 02:55:45;;;;;;;11.90;9.07;;;19.00;99.90;;;;;;5006603;28;21037;-57
2023/08/20 02:58:11;;;;;;;19.10;8.80;;;19.00;99.90;;;;;;5008634;28;20192;-58
2023/08/20 03:00:36;;;;;;;11.87;8.97;;;19.00;99.90;;;;;;5008166;28;20234;-58
2023/08/20 03:03:07;;;;;;;19.43;9.13;;;19.00;99.90;;;;;;5009847;28;20602;-58
2023/08/20 03:05:33;;;;;;;13.27;8.80;;;19.00;99.90;;;;;;5008449;28;20188;-57
2023/08/20 03:07:59;;;;;;;10.97;8.60;;;19.00;99.90;;;;;;5004445;28;20467;-58
2023/08/20 03:10:25;;;;;;;10.93;8.70;;;19.10;99.90;;;;;;5006684;28;21059;-57
2023/08/20 03:12:51;;;;;;;15.77;9.67;;;19.00;99.90;;;;;;5009616;28;20195;-58
2023/08/20 03:15:16;;;;;;;9.73;8.43;;;19.00;99.90;;;;;;5007767;28;20463;-58
2023/08/20 03:17:42;;;;;;;12.20;8.60;;;19.00;99.90;;;;;;5005207;28;20251;-58
2023/08/20 03:20:09;;;;;;;18.43;10.00;;;19.00;99.90;;;;;;5007941;28;20223;-57
2023/08/20 03:22:36;;;;;;;13.20;8.90;;;19.00;99.90;;;;;;5007564;28;20176;-58
2023/08/20 03:25:02;;;;;;;11.70;9.17;;;18.90;99.90;;;;;;5006758;28;20526;-58
2023/08/20 03:27:28;;;;;;;16.47;9.30;;;18.90;99.90;;;;;;5007251;28;20470;-58
2023/08/20 03:29:54;;;;;;;14.00;9.20;;;18.90;99.90;;;;;;5007408;28;20283;-58
2023/08/20 03:32:19;;;;;;;13.53;8.87;;;18.90;99.90;;;;;;5010690;28;20226;-58
2023/08/20 03:34:45;;;;;;;15.00;9.30;;;18.80;99.90;;;;;;5003732;28;20713;-58
2023/08/20 03:37:10;;;;;;;13.33;9.67;;;18.80;99.90;;;;;;5007208;28;20190;-57
2023/08/20 03:39:36;;;;;;;12.97;9.00;;;18.80;99.90;;;;;;5009122;28;20700;-58
2023/08/20 03:42:02;;;;;;;10.60;8.60;;;18.80;99.90;;;;;;5007932;28;20184;-57
2023/08/20 03:44:29;;;;;;;14.57;8.47;;;18.70;99.90;;;;;;5001408;28;20181;-58
2023/08/20 03:46:54;;;;;;;10.33;8.90;;;18.70;99.90;;;;;;5005572;28;20192;-58
2023/08/20 03:49:20;;;;;;;15.50;9.47;;;18.70;99.90;;;;;;5008482;28;20447;-58
2023/08/20 03:51:45;;;;;;;12.60;9.20;;;18.70;99.90;;;;;;5009637;28;20184;-58
2023/08/20 03:54:11;;;;;;;16.00;8.67;;;18.70;99.90;;;;;;5005704;28;20957;-57
2023/08/20 03:56:36;;;;;;;13.70;9.13;;;18.70;99.90;;;;;;5009071;28;20246;-58
2023/08/20 03:59:02;;;;;;;11.47;9.70;;;18.60;99.90;;;;;;5005179;28;20200;-58
2023/08/20 04:01:28;;;;;;;15.60;9.57;;;18.60;99.90;;;;;;5007569;28;20169;-58
2023/08/20 04:03:53;;;;;;;18.03;9.13;;;18.60;99.90;;;;;;5009931;28;20184;-58
2023/08/20 04:06:19;;;;;;;11.73;8.53;;;18.50;99.90;;;;;;5009094;28;20180;-58
2023/08/20 04:08:45;;;;;;;12.40;8.60;;;18.50;99.90;;;;;;5009094;28;20650;-57
2023/08/20 04:11:10;;;;;;;12.03;9.57;;;18.50;99.90;;;;;;5003289;28;20204;-57
2023/08/20 04:13:36;;;;;;;12.40;8.83;;;18.50;99.90;;;;;;5002626;28;20177;-58
2023/08/20 04:16:02;;;;;;;15.00;9.20;;;18.50;99.90;;;;;;5008307;28;20180;-58
2023/08/20 04:18:27;;;;;;;18.10;10.27;;;18.50;99.90;;;;;;5007727;28;20172;-57
2023/08/20 04:20:53;;;;;;;12.13;9.27;;;18.50;99.90;;;;;;4989944;28;20299;-58
2023/08/20 04:23:19;;;;;;;9.77;8.73;;;18.50;99.90;;;;;;5008171;28;20319;-58
2023/08/20 04:25:45;;;;;;;10.40;8.60;;;18.40;99.90;;;;;;5008695;28;21110;-58
2023/08/20 04:28:12;;;;;;;13.87;9.83;;;18.40;99.90;;;;;;5006696;28;20439;-57
2023/08/20 04:30:38;;;;;;;11.53;8.90;;;18.40;99.90;;;;;;5006962;28;20589;-58
2023/08/20 04:33:04;;;;;;;18.47;9.30;;;18.40;99.90;;;;;;5009963;28;20964;-57
2023/08/20 04:35:30;;;;;;;13.00;9.30;;;18.40;99.90;;;;;;5009141;28;20504;-57
2023/08/20 04:37:55;;;;;;;11.73;9.07;;;18.40;99.90;;;;;;5008854;28;20439;-58
2023/08/20 04:40:21;;;;;;;11.37;9.03;;;18.40;99.90;;;;;;5004203;28;20203;-58
2023/08/20 04:42:47;;;;;;;13.33;9.40;;;18.40;99.90;;;;;;5008038;28;20725;-58
2023/08/20 04:45:12;;;;;;;13.60;9.83;;;18.40;99.90;;;;;;5003491;28;20204;-58
2023/08/20 04:47:38;;;;;;;15.00;10.30;;;18.30;99.90;;;;;;5008163;28;20284;-58
2023/08/20 04:50:07;;;;;;;12.60;9.60;;;18.40;99.90;;;;;;5006269;28;20563;-58
2023/08/20 04:52:33;;;;;;;12.27;10.33;;;18.40;99.90;;;;;;5006998;28;20758;-58
2023/08/20 04:55:00;;;;;;;13.17;9.67;;;18.40;99.90;;;;;;5006262;28;20454;-58
2023/08/20 04:57:25;;;;;;;11.60;9.40;;;18.30;99.90;;;;;;5007466;28;20443;-58
2023/08/20 04:59:51;;;;;;;12.60;9.50;;;18.40;99.90;;;;;;5005855;28;20451;-58
2023/08/20 05:02:17;;;;;;;16.07;8.90;;;18.40;99.90;;;;;;5006331;28;20173;-57
2023/08/20 05:04:42;;;;;;;14.50;10.50;;;18.40;99.90;;;;;;5009337;28;20180;-58
2023/08/20 05:07:09;;;;;;;15.97;9.60;;;18.40;99.90;;;;;;5001512;28;20191;-58
2023/08/20 05:09:34;;;;;;;12.30;9.60;;;18.40;99.90;;;;;;5007870;28;20693;-58
2023/08/20 05:12:00;;;;;;;15.90;9.10;;;18.40;99.90;;;;;;5008373;28;20431;-58
2023/08/20 05:14:25;;;;;;;10.30;9.00;;;18.40;99.90;;;;;;5005803;28;20237;-58
2023/08/20 05:16:51;;;;;;;15.17;10.87;;;18.50;99.90;;;;;;5007804;28;20187;-58
2023/08/20 05:19:16;;;;;;;15.13;10.07;;;18.50;99.90;;;;;;5006964;28;20208;-58
2023/08/20 05:21:42;;;;;;;11.60;8.97;;;18.50;99.90;;;;;;5008955;28;20180;-58
2023/08/20 05:24:08;;;;;;;11.53;10.30;;;18.50;99.90;;;;;;5003353;28;20646;-58
2023/08/20 05:26:34;;;;;;;13.07;9.20;;;18.60;99.90;;;;;;5003086;28;20184;-57
2023/08/20 05:29:00;;;;;;;15.50;9.57;;;18.60;99.90;;;;;;5003557;28;20432;-58
2023/08/20 05:31:26;;;;;;;16.90;10.40;;;18.70;99.90;;;;;;5008744;28;20484;-58
2023/08/20 05:33:51;;;;;;;15.03;9.23;;;18.70;99.90;;;;;;5003632;28;20176;-58
2023/08/20 05:36:17;;;;;;;16.93;9.67;;;18.80;99.90;;;;;;5006741;28;20188;-58
2023/08/20 05:38:42;;;;;;;14.23;9.70;;;18.80;99.90;;;;;;5007382;28;20539;-56
2023/08/20 05:41:08;;;;;;;11.13;9.47;;;18.90;99.90;;;;;;5000981;28;20175;-57
2023/08/20 05:43:36;;;;;;;10.50;9.23;;;19.00;99.90;;;;;;5007856;28;20200;-57
2023/08/20 05:46:02;;;;;;;15.47;10.10;;;19.00;99.90;;;;;;5005441;28;20249;-57
2023/08/20 05:48:28;;;;;;;15.30;9.40;;;19.10;99.90;;;;;;5005860;28;21082;-57
2023/08/20 05:50:53;;;;;;;13.80;8.97;;;19.10;99.90;;;;;;5006331;28;20204;-58
2023/08/20 05:53:19;;;;;;;14.90;9.30;;;19.30;99.90;;;;;;5003461;28;20758;-57
2023/08/20 05:55:45;;;;;;;13.10;9.97;;;19.40;99.90;;;;;;5008450;28;20286;-57
2023/08/20 05:58:11;;;;;;;14.60;9.47;;;19.50;99.90;;;;;;5002835;28;20188;-57
2023/08/20 06:00:36;;;;;;;13.60;9.90;;;19.60;99.90;;;;;;5005225;28;20459;-57
2023/08/20 06:03:02;;;;;;;10.77;9.27;;;19.70;99.90;;;;;;5005812;28;20723;-59
2023/08/20 06:05:28;;;;;;;12.13;10.53;;;19.80;99.90;;;;;;4992751;28;20207;-56
2023/08/20 06:07:53;;;;;;;11.00;9.80;;;19.90;99.90;;;;;;5005171;28;20590;-56
2023/08/20 06:10:19;;;;;;;11.47;9.40;;;20.10;99.90;;;;;;5006092;28;20208;-57
2023/08/20 06:12:45;;;;;;;16.23;10.27;;;20.20;99.90;;;;;;5011218;28;20216;-57
2023/08/20 06:15:10;;;;;;;11.80;8.53;;;20.30;99.90;;;;;;5005256;28;20218;-57
2023/08/20 06:17:36;;;;;;;12.40;9.33;;;20.40;99.90;;;;;;5007894;28;20617;-57
2023/08/20 06:20:05;;;;;;;15.40;10.20;;;20.50;99.90;;;;;;5011008;28;20230;-57
2023/08/20 06:22:31;;;;;;;15.43;9.87;;;20.60;99.90;;;;;;5005098;28;20255;-57
2023/08/20 06:24:57;;;;;;;14.53;9.73;;;20.70;99.90;;;;;;5007168;28;20431;-58
2023/08/20 06:27:23;;;;;;;10.80;9.57;;;20.70;99.90;;;;;;5004871;28;20430;-57
2023/08/20 06:29:49;;;;;;;12.47;10.00;;;20.70;99.90;;;;;;5007674;28;20446;-58
2023/08/20 06:32:14;;;;;;;14.00;10.17;;;20.80;99.90;;;;;;5009684;28;20180;-58
2023/08/20 06:34:40;;;;;;;14.87;8.47;;;20.90;99.90;;;;;;5008984;28;20246;-57
2023/08/20 06:37:05;;;;;;;13.50;10.20;;;21.00;99.90;;;;;;5010722;28;20185;-57
2023/08/20 06:39:31;;;;;;;11.37;9.17;;;21.00;99.90;;;;;;5001731;28;20200;-57
2023/08/20 06:41:56;;;;;;;9.40;8.50;;;21.10;99.90;;;;;;5008377;28;20263;-58
2023/08/20 06:44:22;;;;;;;16.07;8.50;;;21.10;99.90;;;;;;5007781;28;20196;-58
2023/08/20 06:46:47;;;;;;;12.27;9.43;;;21.10;99.90;;;;;;5010646;28;20189;-57
2023/08/20 06:49:13;;;;;;;11.53;9.60;;;21.20;99.90;;;;;;5007515;28;20226;-57
2023/08/20 06:51:39;;;;;;;13.43;9.10;;;21.20;99.90;;;;;;5010867;28;20180;-58
2023/08/20 06:54:06;;;;;;;13.17;9.83;;;21.20;99.90;;;;;;5007110;28;20196;-58
2023/08/20 06:56:32;;;;;;;10.73;9.60;;;21.20;99.90;;;;;;4990746;28;20172;-58
2023/08/20 06:58:57;;;;;;;14.90;9.90;;;21.10;99.90;;;;;;5007877;28;20449;-58
2023/08/20 07:01:23;;;;;;;18.17;9.80;;;21.20;99.90;;;;;;5002352;28;20431;-58
2023/08/20 07:03:49;;;;;;;13.40;9.87;;;21.20;99.90;;;;;;5008902;28;20211;-58
2023/08/20 07:06:16;;;;;;;17.77;10.23;;;21.30;99.90;;;;;;5003309;28;20181;-58
2023/08/20 07:08:42;;;;;;;16.13;10.47;;;21.30;99.90;;;;;;5009078;28;20185;-57
2023/08/20 07:11:08;;;;;;;15.73;9.33;;;21.40;99.90;;;;;;5010378;28;20477;-58
2023/08/20 07:13:33;;;;;;;11.43;9.33;;;21.50;99.90;;;;;;5002823;28;20246;-58
2023/08/20 07:15:59;;;;;;;17.40;9.70;;;21.60;99.90;;;;;;4989388;28;20238;-59
2023/08/20 07:18:25;;;;;;;11.50;8.70;;;21.70;99.90;;;;;;5007716;28;20185;-58
2023/08/20 07:20:54;;;;;;;16.43;9.07;;;21.90;99.90;;;;;;5009352;28;20647;-59
2023/08/20 07:23:20;;;;;;;12.63;9.00;;;22.00;99.90;;;;;;5009153;28;20169;-58
2023/08/20 07:25:46;;;;;;;15.83;9.30;;;22.10;99.90;;;;;;5010842;28;20917;-58
2023/08/20 07:28:12;;;;;;;15.13;8.90;;;22.20;99.90;;;;;;5008381;28;20180;-58
2023/08/20 07:30:38;;;;;;;14.07;9.83;;;22.40;99.90;;;;;;5006632;28;20459;-58
2023/08/20 07:33:05;;;;;;;13.70;9.33;;;22.60;99.90;;;;;;5007223;28;20449;-58
2023/08/20 07:35:31;;;;;;;14.43;9.70;;;22.70;99.90;;;;;;5007716;28;20208;-58
2023/08/20 07:37:57;;;;;;;16.43;10.00;;;22.90;99.90;;;;;;5004189;28;20456;-58
2023/08/20 07:40:22;;;;;;;10.47;9.10;;;23.00;99.90;;;;;;5006413;28;20770;-58
2023/08/20 07:42:50;;;;;;;16.30;8.77;;;23.10;99.90;;;;;;5008914;28;20184;-58
2023/08/20 07:45:16;;;;;;;12.40;9.07;;;23.20;99.30;;;;;;5008088;28;20610;-58
2023/08/20 07:47:42;;;;;;;10.50;9.30;;;23.30;98.30;;;;;;5006016;28;20691;-58
2023/08/20 07:50:08;;;;;;;10.90;8.57;;;23.40;97.20;;;;;;5006040;28;20455;-58
2023/08/20 07:52:33;;;;;;;13.07;8.30;;;23.50;97.10;;;;;;5008738;28;20184;-58
2023/08/20 07:54:59;;;;;;;13.70;9.63;;;23.60;96.10;;;;;;5006872;28;20674;-58
2023/08/20 07:57:24;;;;;;;11.77;8.33;;;23.70;95.60;;;;;;5006076;28;20195;-58
2023/08/20 07:59:51;;;;;;;10.67;9.10;;;23.80;94.90;;;;;;5006679;28;20652;-58
2023/08/20 08:02:16;;;;;;;11.83;8.03;;;24.00;93.90;;;;;;5008152;28;20849;-58
2023/08/20 08:04:42;;;;;;;11.07;8.60;;;24.10;92.80;;;;;;5006159;28;20538;-58
2023/08/20 08:07:09;;;;;;;10.27;9.07;;;24.20;92.20;;;;;;5001454;28;20267;-58
2023/08/20 08:09:35;;;;;;;12.47;9.43;;;24.30;92.30;;;;;;5007141;28;20204;-58
2023/08/20 08:12:01;;;;;;;13.57;8.60;;;24.40;92.50;;;;;;5009774;28;20466;-58
2023/08/20 08:14:27;;;;;;;11.63;8.77;;;24.50;91.40;;;;;;5003843;28;20249;-59
2023/08/20 08:16:53;;;;;;;12.00;8.80;;;24.50;90.40;;;;;;5004481;28;20431;-59
2023/08/20 08:19:19;;;;;;;12.10;8.57;;;24.60;88.60;;;;;;5007395;28;20212;-58
2023/08/20 08:21:46;;;;;;;11.57;8.43;;;24.70;85.10;;;;;;5010473;28;20168;-58
2023/08/20 08:24:13;;;;;;;13.47;7.80;;;24.70;84.20;;;;;;5007590;28;20434;-59
2023/08/20 08:26:39;;;;;;;8.87;7.47;;;24.80;80.80;;;;;;5006287;28;20423;-58
2023/08/20 08:29:06;;;;;;;30.27;7.60;;;24.90;77.40;;;;;;5007673;28;20462;-59
2023/08/20 08:31:32;;;;;;;9.40;7.07;;;24.90;71.60;;;;;;5002359;28;20990;-58
2023/08/20 08:33:57;;;;;;;9.33;7.93;;;24.90;70.80;;;;;;5003854;28;20525;-58
2023/08/20 08:36:24;;;;;;;17.80;7.53;;;25.00;71.30;;;;;;5005490;28;20454;-58
2023/08/20 08:38:51;;;;;;;9.70;7.13;;;25.10;71.80;;;;;;5000953;28;20545;-58
2023/08/20 08:41:19;;;;;;;11.37;8.00;;;25.20;71.60;;;;;;5006230;28;20460;-58
2023/08/20 08:43:46;;;;;;;9.93;7.00;;;25.30;71.20;;;;;;5006829;28;20437;-58
2023/08/20 08:46:15;;;;;;;12.60;8.27;;;25.40;71.30;;;;;;5003773;28;20445;-58
2023/08/20 08:48:43;;;;;;;9.27;7.00;;;25.50;71.40;;;;;;5005964;28;20980;-59
2023/08/20 08:51:09;;;;;;;12.37;8.20;;;25.60;71.40;;;;;;5007791;28;20465;-59
2023/08/20 08:53:36;;;;;;;15.00;7.63;;;25.80;71.40;;;;;;5008085;28;20435;-58
2023/08/20 08:56:03;;;;;;;12.33;8.10;;;25.90;69.40;;;;;;5003693;28;20455;-58
2023/08/20 08:58:28;;;;;;;15.03;8.23;;;26.00;69.40;;;;;;5007160;28;20427;-58
2023/08/20 09:00:55;;;;;;;8.63;7.67;;;26.10;70.50;;;;;;5006269;28;20513;-58
2023/08/20 09:03:20;;;;;;;11.23;7.10;;;26.00;71.60;;;;;;5007181;28;20187;-58
2023/08/20 09:05:53;;;;;;;8.33;7.43;;;26.00;72.50;;;;;;5005061;28;20426;-57
2023/08/20 09:08:26;;;;;;;14.00;8.10;;;26.00;72.30;;;;;;5005204;28;20180;-59
2023/08/20 09:10:52;;;;;;;11.90;8.30;;;26.10;71.60;;;;;;5006245;28;20457;-58
2023/08/20 09:13:23;;;;;;;12.77;7.67;;;26.20;70.60;;;;;;4990573;28;20234;-58
2023/08/20 09:15:54;;;;;;;10.93;7.37;;;26.30;69.30;;;;;;5006941;28;20623;-58
2023/08/20 09:18:20;;;;;;;10.40;7.77;;;26.40;69.30;;;;;;5011210;28;20230;-57
2023/08/20 09:20:49;;;;;;;9.23;7.80;;;26.60;69.50;;;;;;5001410;28;20228;-58
2023/08/20 09:23:15;;;;;;;14.30;8.07;;;26.70;68.80;;;;;;5006840;28;20168;-58
2023/08/20 09:25:45;;;;;;;9.13;7.40;;;26.90;68.80;;;;;;5002239;28;20761;-58
2023/08/20 09:28:11;;;;;;;11.30;7.90;;;27.10;68.50;;;;;;5001027;28;20184;-57
2023/08/20 09:30:39;;;;;;;9.40;7.63;;;27.30;67.00;;;;;;5005886;28;20206;-57
2023/08/20 09:33:13;;;;;;;12.93;7.60;;;27.40;66.70;;;;;;5004453;28;20263;-58
2023/08/20 09:35:48;;;;;;;9.83;7.27;;;27.50;64.60;;;;;;5003377;28;20217;-58
2023/08/20 09:38:13;;;;;;;12.23;7.23;;;27.60;62.30;;;;;;5002845;28;20676;-58
2023/08/20 09:40:39;;;;;;;9.40;7.33;;;27.70;61.60;;;;;;5007740;28;20192;-58
2023/08/20 09:43:08;;;;;;;9.30;7.50;;;27.70;61.30;;;;;;5003778;28;20199;-59
2023/08/20 09:45:36;;;;;;;13.13;7.70;;;27.80;61.70;;;;;;5008050;28;20661;-59
2023/08/20 09:48:05;;;;;;;11.33;7.17;;;27.90;63.00;;;;;;5001652;28;20184;-58
2023/08/20 09:50:36;;;;;;;13.37;7.40;;;28.00;62.10;;;;;;5001388;28;20184;-57
2023/08/20 09:53:38;;;;;;;8.10;7.03;;;28.10;60.90;;;;;;5005354;28;20177;-59
2023/08/20 09:56:28;;;;;;;13.37;6.50;;;28.30;61.40;;;;;;5005765;28;20566;-58
2023/08/20 09:58:55;;;;;;;9.68;6.60;;;28.40;57.10;;;;;;5006291;28;20184;-59
2023/08/20 10:01:20;;;;;;;8.43;6.00;;;28.50;57.60;;;;;;5006845;28;20876;-58
2023/08/20 10:03:46;;;;;;;8.65;6.35;;;28.60;56.50;;;;;;5007972;28;20180;-57
2023/08/20 10:06:12;;;;;;;12.63;7.68;;;28.70;57.60;;;;;;5007194;28;20369;-59
2023/08/20 10:08:38;;;;;;;9.32;5.93;;;28.80;57.60;;;;;;5002877;28;20250;-58
2023/08/20 10:11:04;;;;;;;9.05;6.35;;;28.90;55.40;;;;;;5006971;28;20209;-59
2023/08/20 10:13:30;;;;;;;10.35;6.40;;;29.00;55.40;;;;;;5004037;28;20180;-59
2023/08/20 10:15:56;;;;;;;7.90;5.85;;;29.00;53.00;;;;;;5007998;28;20765;-59
2023/08/20 10:18:22;;;;;;;7.90;5.93;;;29.10;53.80;;;;;;5008087;28;20172;-60
2023/08/20 10:20:51;;;;;;;13.90;6.43;;;29.30;53.30;;;;;;5005476;28;20208;-59
2023/08/20 10:23:22;;;;;;;7.55;6.15;;;29.40;52.90;;;;;;5002225;28;20691;-59
2023/08/20 10:25:48;;;;;;;8.45;5.47;;;29.60;54.30;;;;;;5007704;28;20590;-59
2023/08/20 10:28:26;;;;;;;9.07;5.13;;;29.70;53.10;;;;;;5007526;28;20754;-59
2023/08/20 10:31:12;;;;;;;16.30;5.63;;;29.80;52.20;;;;;;4996197;28;20199;-59
2023/08/20 10:34:05;;;;;;;12.90;5.78;;;30.00;53.10;;;;;;4998623;28;20247;-57
2023/08/20 10:36:41;;;;;;;18.20;6.30;;;30.00;52.90;;;;;;5001229;28;20196;-62
2023/08/20 10:39:23;;;;;;;8.15;5.63;;;30.10;53.10;;;;;;4995318;28;20709;-62
2023/08/20 10:41:48;;;;;;;12.68;5.72;;;30.10;52.80;;;;;;4997465;28;20661;-63
2023/08/20 10:44:14;;;;;;;8.65;6.53;;;30.20;52.30;;;;;;5004503;28;20202;-61
2023/08/20 10:46:50;;;;;;;9.10;6.47;;;30.30;52.50;;;;;;5009679;28;20170;-61
2023/08/20 10:49:17;;;;;;;15.68;6.82;;;30.50;52.60;;;;;;4999826;28;20193;-62
2023/08/20 10:51:43;;;;;;;7.07;6.25;;;30.60;51.70;;;;;;5010414;28;20202;-63
2023/08/20 10:54:10;;;;;;;10.65;5.63;;;30.60;52.30;;;;;;5006884;28;20192;-60
2023/08/20 10:56:58;;;;;;;9.02;5.18;;;30.70;52.60;;;;;;5005727;28;20239;-60
2023/08/20 10:59:29;;;;;;;7.72;5.90;;;30.80;52.70;;;;;;5003334;28;20223;-57
2023/08/20 11:01:57;;;;;;;10.60;6.32;;;31.00;52.80;;;;;;5009415;28;20546;-60
2023/08/20 11:04:33;;;;;;;8.57;5.40;;;31.10;52.60;;;;;;5011971;28;20187;-60
2023/08/20 11:07:00;;;;;;;11.68;6.15;;;31.20;51.40;;;;;;5007159;28;20198;-60
2023/08/20 11:09:28;;;;;;;8.73;5.50;;;31.30;51.80;;;;;;5008566;28;20238;-60
2023/08/20 11:11:55;;;;;;;9.25;6.53;;;31.40;51.30;;;;;;5011358;28;20195;-61
2023/08/20 11:14:21;;;;;;;6.70;5.40;;;31.50;51.30;;;;;;5010118;28;20196;-60
2023/08/20 11:16:48;;;;;;;10.63;5.25;;;31.60;51.60;;;;;;5004974;28;20187;-63
2023/08/20 11:19:18;;;;;;;8.80;5.78;;;31.70;50.70;;;;;;5008318;28;20209;-60
2023/08/20 11:21:44;;;;;;;8.82;6.20;;;31.80;49.80;;;;;;5011051;28;20275;-60
2023/08/20 11:24:10;;;;;;;11.00;6.05;;;31.80;48.90;;;;;;5000191;28;20264;-60
2023/08/20 11:26:38;;;;;;;11.90;5.75;;;31.90;49.10;;;;;;5005378;28;20164;-60
2023/08/20 11:29:12;;;;;;;9.95;6.05;;;31.90;48.60;;;;;;5006343;28;20653;-60
2023/08/20 11:31:38;;;;;;;9.15;6.07;;;32.00;48.10;;;;;;5007799;28;20195;-61
2023/08/20 11:34:05;;;;;;;11.82;5.78;;;32.10;46.70;;;;;;4995117;28;20668;-60
2023/08/20 11:36:31;;;;;;;9.65;5.78;;;32.20;48.10;;;;;;4986820;28;20185;-60
2023/08/20 11:38:56;;;;;;;15.75;6.90;;;32.30;49.80;;;;;;5005197;28;20679;-59
2023/08/20 11:41:23;;;;;;;10.65;5.97;;;32.40;47.60;;;;;;5002981;28;20186;-60
2023/08/20 11:43:50;;;;;;;9.93;5.90;;;32.50;47.00;;;;;;5000917;28;20776;-60
2023/08/20 11:46:17;;;;;;;8.68;6.32;;;32.50;47.60;;;;;;5002958;28;20244;-61
2023/08/20 11:49:05;;;;;;;9.15;6.15;;;32.70;46.20;;;;;;5009950;28;20298;-59
2023/08/20 11:51:47;;;;;;;11.98;5.28;;;32.80;44.80;;;;;;5008010;28;20182;-58
2023/08/20 11:54:15;;;;;;;20.35;6.18;;;32.90;46.10;;;;;;4995136;28;20400;-58
2023/08/20 11:56:46;;;;;;;5.22;4.78;;;33.00;44.30;;;;;;5006500;28;20192;-60
2023/08/20 11:59:12;;;;;;;7.95;5.50;;;33.10;44.40;;;;;;5004655;28;20699;-59
2023/08/20 12:01:38;;;;;;;10.98;5.38;;;33.30;44.90;;;;;;5004068;28;20189;-58
2023/08/20 12:04:07;;;;;;;8.88;5.30;;;33.10;44.20;;;;;;5009211;28;20176;-60
2023/08/20 12:06:37;;;;;;;9.70;6.15;;;32.90;45.80;;;;;;5003060;28;20186;-58
2023/08/20 12:09:22;;;;;;;12.70;5.57;;;32.90;47.80;;;;;;5004282;28;20190;-58
2023/08/20 12:11:52;;;;;;;11.75;6.03;;;32.90;47.40;;;;;;5009535;28;20176;-59
2023/08/20 12:14:19;;;;;;;11.20;6.22;;;32.70;47.40;;;;;;5006993;28;20196;-60
2023/08/20 12:16:45;;;;;;;7.85;5.82;;;32.30;47.40;;;;;;5007724;28;20211;-60
2023/08/20 12:19:11;;;;;;;11.55;6.40;;;32.00;47.80;;;;;;5008216;28;20304;-58
2023/08/20 12:21:36;;;;;;;10.25;6.28;;;31.70;48.40;;;;;;5005973;28;20182;-59
2023/08/20 12:24:04;;;;;;;8.15;5.97;;;31.40;48.90;;;;;;5008713;28;20171;-60
2023/08/20 12:26:29;;;;;;;11.10;5.70;;;31.20;49.20;;;;;;5008866;28;20189;-61
2023/08/20 12:28:55;;;;;;;12.85;5.85;;;31.00;50.20;;;;;;5008987;28;20816;-59
2023/08/20 12:31:21;;;;;;;12.02;5.70;;;30.90;50.10;;;;;;5006234;28;20229;-59
2023/08/20 12:33:46;;;;;;;12.32;5.53;;;30.80;50.50;;;;;;5008499;28;20280;-58
2023/08/20 12:36:12;;;;;;;8.02;5.85;;;31.00;50.80;;;;;;5004210;28;20204;-61
2023/08/20 12:38:37;;;;;;;9.43;5.85;;;31.20;50.70;;;;;;5007182;28;20262;-57